アデレード の空港の天気 - METARとTAF

アデレード空港 ( YPAD / ADL ) - オーストラリア 南オーストラリア州アデレード
飛行場実況気象(Metar)
観測時間05/26 08:30 ACST (05/25 23:00 UTC)
風向・風速北北東 5m/s
視程10km以上
天気現象
なし
気温12℃
湿度58%
気圧1020hPa
METARYPAD 252300Z 03010KT CAVOK 12/04 Q1020 FM0100 36014G24KT CAVOK
過去の天気等 Google飛行場航空写真 Wunderground天気予報

過去48時間のMETAR

飛行場予報(TAF)
発表時間: 5/26 02:02 ACST (5/25 16:32 UTC)
予報対象時間: 26日3時 ACST ~ 27日9時 ACST
風向・風速北東 5m/s
視程10km以上
なし
26日9時 ACST から
風向・風速北 7m/s 瞬間風速 12m/s
視程10km以上
なし
26日14時 ACST から
風向・風速北 6m/s
視程10km以上
なし
26日19時 ACST から
風向・風速北 6m/s
視程10km以上
天気現象弱い雨
全天の4割程度の雲 雲底高度 1370m
27日3時 ACST から
風向・風速北 6m/s
視程10km以上
天気現象弱い雨
全天の8割程度の雲 雲底高度 610m
TAF YPAD 251632Z 2518/2700 05010KT CAVOK
FM260000 36014G24KT CAVOK
FM260500 36012KT CAVOK
FM261000 36012KT 9999 -RA SCT045
FM261800 36012KT 9999 -RA BKN020 INTER 2618/2700 3000 RA BKN015